Elblag, Poland
Current Conditions -  °F | °C
As of 6:00 AM on Saturday 20 Dec 2014 (Local Time) from EPGD Reporting Station
Broken Clouds Broken Clouds  
Wind Chill: 30°   Ceiling: 2300
Heat Index: 39°   Visibility: 6mi
Dew Point: 32°   Wind: 17mph
Humidity: 75%   Direction: 260°W
Pressure: 29.59"   Gusts: 29mph
Location:  54.18°N, 19.4°E
Report Text: EPGD 200400Z 26015G25KT 9999 BKN023 04/00 Q1002
Loading
Personal Weather Stations






























Interactive Weather Map New forecast layout! Learn more

10-Day Weather Forecast

Advertisements
Track Severe Weather on mobile